createdAt,value
2022-09-17T00:00:31.765Z,99453.97
2022-09-17T00:01:35.022Z,99452.22
2022-09-17T00:02:38.273Z,99448.72
2022-09-17T00:03:41.426Z,99453.09
2022-09-17T00:04:44.535Z,99452.22
2022-09-17T00:05:47.424Z,99449.59
2022-09-17T00:06:50.476Z,99452.22
2022-09-17T00:07:53.913Z,99454.00
2022-09-17T00:08:57.023Z,99465.34
2022-09-17T00:10:00.046Z,99450.50
2022-09-17T00:11:16.108Z,99453.97
2022-09-17T00:12:19.011Z,99454.84
2022-09-17T00:13:22.312Z,99452.25
2022-09-17T00:14:25.309Z,99459.22
2022-09-17T00:15:28.425Z,99459.25
2022-09-17T00:16:39.974Z,99449.63
2022-09-17T00:17:43.754Z,99454.00
2022-09-17T00:18:46.967Z,99455.72
2022-09-17T00:19:50.005Z,99456.59
2022-09-17T00:20:53.133Z,99465.34
2022-09-17T00:21:56.140Z,99456.63
2022-09-17T00:22:59.092Z,99454.00
2022-09-17T00:24:05.645Z,99451.34
2022-09-17T00:25:09.008Z,99457.50
2022-09-17T00:26:12.343Z,99460.09
2022-09-17T00:27:15.237Z,99460.13
2022-09-17T00:28:18.474Z,99460.09
2022-09-17T00:29:21.482Z,99471.47
2022-09-17T00:30:24.351Z,99463.59
2022-09-17T00:31:29.646Z,99466.22
2022-09-17T00:32:32.607Z,99463.59
2022-09-17T00:33:36.515Z,99464.44
2022-09-17T00:34:39.503Z,99461.84
2022-09-17T00:35:43.300Z,99459.25
2022-09-17T00:36:46.261Z,99465.34
2022-09-17T00:37:49.172Z,99464.47
2022-09-17T00:38:54.175Z,99469.72
2022-09-17T00:39:57.022Z,99467.09
2022-09-17T00:41:01.190Z,99462.72
2022-09-17T00:42:10.610Z,99462.72
2022-09-17T00:43:13.499Z,99468.88
2022-09-17T00:44:49.770Z,99467.97
2022-09-17T00:45:54.025Z,99460.97
2022-09-17T00:46:58.177Z,99467.09
2022-09-17T00:48:05.554Z,99461.88
2022-09-17T00:49:27.009Z,99467.91
2022-09-17T00:50:39.616Z,99467.94
2022-09-17T00:52:09.540Z,99474.03
2022-09-17T00:53:17.405Z,99474.03
2022-09-17T00:54:20.737Z,99473.16
2022-09-17T00:55:33.415Z,99467.91
2022-09-17T00:56:40.500Z,99469.66
2022-09-17T00:57:45.955Z,99478.41
2022-09-17T00:58:51.938Z,99468.78
2022-09-17T00:59:55.561Z,99474.00
2022-09-17T01:00:58.598Z,99473.16
2022-09-17T01:02:02.108Z,99467.88
2022-09-17T01:03:05.466Z,99473.09
2022-09-17T01:04:18.599Z,99476.63
2022-09-17T01:05:42.824Z,99480.09
2022-09-17T01:07:04.086Z,99478.38
2022-09-17T01:08:56.844Z,99468.75
2022-09-17T01:10:44.169Z,99473.09
2022-09-17T01:11:57.165Z,99473.13
2022-09-17T01:13:30.253Z,99468.78
2022-09-17T01:15:08.774Z,99468.78
2022-09-17T01:16:38.818Z,99472.25
2022-09-17T01:18:21.847Z,99467.88
2022-09-17T01:20:04.669Z,99467.91
2022-09-17T01:21:44.851Z,99471.34
2022-09-17T01:23:21.952Z,99469.63
2022-09-17T01:24:52.965Z,99473.97
2022-09-17T01:26:08.092Z,99471.38
2022-09-17T01:28:08.873Z,99471.38
2022-09-17T01:29:17.678Z,99463.53
2022-09-17T01:31:10.171Z,99466.13
2022-09-17T01:32:28.560Z,99465.25
2022-09-17T01:33:50.942Z,99466.13
2022-09-17T01:35:06.148Z,99469.59
2022-09-17T01:36:20.376Z,99470.50
2022-09-17T01:37:58.008Z,99469.59
2022-09-17T01:39:29.629Z,99459.13
2022-09-17T01:41:08.767Z,99467.00
2022-09-17T01:42:38.856Z,99459.16
2022-09-17T01:44:11.050Z,99460.91
2022-09-17T01:45:30.816Z,99454.78
2022-09-17T01:46:46.163Z,99457.41
2022-09-17T01:48:18.218Z,99463.50
2022-09-17T01:49:25.519Z,99466.13
2022-09-17T01:50:40.905Z,99457.41
2022-09-17T01:51:50.801Z,99465.25
2022-09-17T01:52:56.877Z,99460.00
2022-09-17T01:54:13.156Z,99459.13
2022-09-17T01:55:18.569Z,99466.97
2022-09-17T01:56:28.025Z,99468.72
2022-09-17T01:57:47.779Z,99461.72
2022-09-17T01:59:13.631Z,99462.59
2022-09-17T02:00:17.823Z,99460.88
2022-09-17T02:01:25.011Z,99468.72
2022-09-17T02:02:46.622Z,99464.31
2022-09-17T02:04:04.353Z,99462.59
2022-09-17T02:05:20.174Z,99462.56
2022-09-17T02:06:31.042Z,99459.16
2022-09-17T02:08:03.961Z,99467.84
2022-09-17T02:09:22.591Z,99461.75
2022-09-17T02:10:34.671Z,99462.59
2022-09-17T02:11:42.080Z,99461.69
2022-09-17T02:12:53.186Z,99459.06
2022-09-17T02:14:19.085Z,99458.22
2022-09-17T02:15:28.193Z,99466.94
2022-09-17T02:16:39.476Z,99464.31
2022-09-17T02:18:07.328Z,99464.31
2022-09-17T02:19:45.835Z,99462.56
2022-09-17T02:21:07.102Z,99462.59
2022-09-17T02:22:28.132Z,99462.56
2022-09-17T02:23:37.833Z,99466.06
2022-09-17T02:24:51.344Z,99464.34
2022-09-17T02:26:04.747Z,99466.06
2022-09-17T02:27:32.760Z,99461.69
2022-09-17T02:28:50.078Z,99466.06
2022-09-17T02:29:52.890Z,99457.34
2022-09-17T02:30:56.498Z,99460.81
2022-09-17T02:32:00.172Z,99464.31
2022-09-17T02:33:08.727Z,99462.53
2022-09-17T02:34:11.904Z,99464.28
2022-09-17T02:35:15.548Z,99465.16
2022-09-17T02:36:19.482Z,99463.44
2022-09-17T02:37:22.525Z,99463.44
2022-09-17T02:38:27.114Z,99466.03
2022-09-17T02:39:30.226Z,99471.28
2022-09-17T02:40:46.343Z,99462.53
2022-09-17T02:42:21.660Z,99462.56
2022-09-17T02:43:55.484Z,99461.66
2022-09-17T02:45:27.599Z,99471.25
2022-09-17T02:46:56.983Z,99456.41
2022-09-17T02:48:35.199Z,99469.50
2022-09-17T02:49:50.242Z,99466.84
2022-09-17T02:51:17.868Z,99468.59
2022-09-17T02:52:52.138Z,99469.44
2022-09-17T02:54:02.959Z,99465.94
2022-09-17T02:55:17.996Z,99458.97
2022-09-17T02:56:29.871Z,99458.94
2022-09-17T02:57:55.045Z,99463.31
2022-09-17T02:59:58.494Z,99466.75
2022-09-17T03:01:13.379Z,99461.53
2022-09-17T03:02:30.768Z,99464.16
2022-09-17T03:03:46.138Z,99462.41
2022-09-17T03:04:50.918Z,99463.25
2022-09-17T03:05:55.072Z,99463.22
2022-09-17T03:07:00.587Z,99462.34
2022-09-17T03:08:03.975Z,99459.72
2022-09-17T03:09:06.774Z,99465.81
2022-09-17T03:10:09.744Z,99460.63
2022-09-17T03:11:13.073Z,99466.75
2022-09-17T03:12:16.506Z,99460.66
2022-09-17T03:13:20.039Z,99464.13
2022-09-17T03:14:22.881Z,99463.22
2022-09-17T03:15:26.549Z,99456.22
2022-09-17T03:16:29.478Z,99461.47
2022-09-17T03:17:32.907Z,99460.63
2022-09-17T03:18:36.474Z,99461.50
2022-09-17T03:19:39.359Z,99459.81
2022-09-17T03:20:42.416Z,99461.53
2022-09-17T03:21:45.236Z,99455.44
2022-09-17T03:22:48.135Z,99460.66
2022-09-17T03:23:51.244Z,99453.69
2022-09-17T03:24:54.256Z,99456.28
2022-09-17T03:25:57.150Z,99458.91
2022-09-17T03:27:00.106Z,99455.44
2022-09-17T03:28:03.446Z,99458.00
2022-09-17T03:29:06.643Z,99458.88
2022-09-17T03:30:10.196Z,99455.34
2022-09-17T03:31:13.097Z,99451.91
2022-09-17T03:32:15.996Z,99461.50
2022-09-17T03:33:20.027Z,99453.63
2022-09-17T03:34:23.920Z,99455.34
2022-09-17T03:35:27.010Z,99451.81
2022-09-17T03:36:31.336Z,99460.56
2022-09-17T03:37:34.207Z,99457.06
2022-09-17T03:38:38.815Z,99455.34
2022-09-17T03:39:41.816Z,99457.03
2022-09-17T03:40:44.784Z,99458.78
2022-09-17T03:41:47.757Z,99455.31
2022-09-17T03:42:50.752Z,99454.41
2022-09-17T03:43:54.305Z,99454.44
2022-09-17T03:44:57.378Z,99452.66
2022-09-17T03:46:00.772Z,99462.25
2022-09-17T03:47:04.032Z,99460.56
2022-09-17T03:48:06.894Z,99454.44
2022-09-17T03:49:09.768Z,99458.81
2022-09-17T03:50:12.779Z,99457.88
2022-09-17T03:51:16.063Z,99450.00
2022-09-17T03:52:19.183Z,99457.88
2022-09-17T03:53:22.071Z,99452.59
2022-09-17T03:54:25.867Z,99453.47
2022-09-17T03:55:28.822Z,99457.84
2022-09-17T03:56:31.815Z,99450.88
2022-09-17T03:57:34.798Z,99463.94
2022-09-17T03:58:38.922Z,99454.34
2022-09-17T03:59:42.104Z,99456.97
2022-09-17T04:00:45.208Z,99444.75
2022-09-17T04:01:48.290Z,99458.72
2022-09-17T04:02:51.455Z,99458.69
2022-09-17T04:03:55.323Z,99453.47
2022-09-17T04:04:58.232Z,99454.34
2022-09-17T04:06:01.214Z,99453.50
2022-09-17T04:07:04.460Z,99460.50
2022-09-17T04:08:07.305Z,99462.25
2022-09-17T04:09:10.186Z,99456.13
2022-09-17T04:10:13.358Z,99457.84
2022-09-17T04:11:16.937Z,99458.72
2022-09-17T04:12:20.402Z,99462.16
2022-09-17T04:13:23.300Z,99457.78
2022-09-17T04:14:26.410Z,99465.63
2022-09-17T04:15:29.324Z,99456.88
2022-09-17T04:16:32.318Z,99457.75
2022-09-17T04:17:35.418Z,99458.59
2022-09-17T04:18:38.632Z,99464.72
2022-09-17T04:19:41.695Z,99459.47
2022-09-17T04:20:44.646Z,99458.63
2022-09-17T04:21:47.511Z,99462.09
2022-09-17T04:22:50.692Z,99460.38
2022-09-17T04:23:53.718Z,99457.88
2022-09-17T04:24:56.690Z,99456.09
2022-09-17T04:25:59.611Z,99452.56
2022-09-17T04:27:03.071Z,99457.03
2022-09-17T04:28:06.789Z,99457.00
2022-09-17T04:29:10.258Z,99462.34
2022-09-17T04:30:14.961Z,99458.03
2022-09-17T04:31:18.073Z,99453.63
2022-09-17T04:32:21.017Z,99453.69
2022-09-17T04:33:24.011Z,99458.94
2022-09-17T04:34:27.075Z,99464.16
2022-09-17T04:35:30.753Z,99461.56
2022-09-17T04:36:33.664Z,99464.16
2022-09-17T04:37:37.319Z,99458.94
2022-09-17T04:38:40.581Z,99461.56
2022-09-17T04:39:43.466Z,99466.81
2022-09-17T04:40:50.140Z,99464.16
2022-09-17T04:41:55.412Z,99458.06
2022-09-17T04:43:00.009Z,99470.25
2022-09-17T04:44:02.957Z,99465.03
2022-09-17T04:45:06.549Z,99464.19
2022-09-17T04:46:09.674Z,99464.19
2022-09-17T04:47:12.550Z,99462.47
2022-09-17T04:48:15.611Z,99461.59
2022-09-17T04:49:18.439Z,99462.47
2022-09-17T04:50:22.432Z,99460.75
2022-09-17T04:51:25.372Z,99464.28
2022-09-17T04:52:31.016Z,99462.56
2022-09-17T04:53:34.346Z,99466.06
2022-09-17T04:54:37.345Z,99455.59
2022-09-17T04:55:40.348Z,99458.19
2022-09-17T04:56:43.268Z,99455.59
2022-09-17T04:57:52.036Z,99457.34
2022-09-17T04:58:55.168Z,99456.50
2022-09-17T04:59:58.381Z,99461.75
2022-09-17T05:01:01.448Z,99455.63
2022-09-17T05:02:04.753Z,99453.91
2022-09-17T05:03:07.953Z,99462.63
2022-09-17T05:04:11.208Z,99460.03
2022-09-17T05:05:15.715Z,99459.16
2022-09-17T05:06:18.581Z,99461.78
2022-09-17T05:07:21.621Z,99461.81
2022-09-17T05:08:25.337Z,99457.41
2022-09-17T05:09:28.561Z,99459.22
2022-09-17T05:10:31.525Z,99460.13
2022-09-17T05:11:35.378Z,99454.00
2022-09-17T05:12:38.355Z,99457.50
2022-09-17T05:13:41.273Z,99460.13
2022-09-17T05:14:44.221Z,99459.25
2022-09-17T05:15:47.439Z,99461.84
2022-09-17T05:16:50.369Z,99461.00
2022-09-17T05:17:53.639Z,99460.97
2022-09-17T05:18:57.981Z,99459.22
2022-09-17T05:20:01.044Z,99467.09
2022-09-17T05:21:04.251Z,99465.31
2022-09-17T05:22:07.206Z,99463.56
2022-09-17T05:23:10.537Z,99470.53
2022-09-17T05:24:13.541Z,99469.63
2022-09-17T05:25:19.742Z,99471.34
2022-09-17T05:26:22.757Z,99470.34
2022-09-17T05:27:25.683Z,99474.66
2022-09-17T05:28:29.186Z,99467.47
2022-09-17T05:29:32.918Z,99470.91
2022-09-17T05:30:36.296Z,99475.22
2022-09-17T05:31:39.239Z,99472.44
2022-09-17T05:32:42.310Z,99475.75
2022-09-17T05:33:45.127Z,99474.78
2022-09-17T05:34:48.036Z,99471.06
2022-09-17T05:35:50.978Z,99473.56
2022-09-17T05:36:54.041Z,99477.72
2022-09-17T05:38:02.104Z,99461.75
2022-09-17T05:39:05.219Z,99466.97
2022-09-17T05:40:10.362Z,99469.31
2022-09-17T05:41:13.274Z,99460.38
2022-09-17T05:42:16.367Z,99461.22
2022-09-17T05:43:19.300Z,99460.91
2022-09-17T05:44:23.689Z,99463.00
2022-09-17T05:45:29.815Z,99460.94
2022-09-17T05:46:32.706Z,99457.03
2022-09-17T05:47:35.676Z,99459.84
2022-09-17T05:48:38.579Z,99458.25
2022-09-17T05:49:41.869Z,99452.06
2022-09-17T05:50:44.990Z,99450.31
2022-09-17T05:51:50.135Z,99450.59
2022-09-17T05:52:54.005Z,99454.59
2022-09-17T05:53:56.891Z,99448.22
2022-09-17T05:54:59.762Z,99456.06
2022-09-17T05:56:02.917Z,99455.22
2022-09-17T05:57:06.289Z,99449.66
2022-09-17T05:58:17.193Z,99456.09
2022-09-17T05:59:20.255Z,99459.31
2022-09-17T06:00:23.190Z,99449.47
2022-09-17T06:01:26.435Z,99453.75
2022-09-17T06:02:29.730Z,99453.94
2022-09-17T06:03:32.724Z,99447.28
2022-09-17T06:04:35.714Z,99453.50
2022-09-17T06:05:38.821Z,99446.16
2022-09-17T06:06:41.825Z,99449.31
2022-09-17T06:07:44.772Z,99448.25
2022-09-17T06:08:47.747Z,99447.69
2022-09-17T06:09:50.856Z,99448.25
2022-09-17T06:10:55.443Z,99449.63
2022-09-17T06:12:01.254Z,99445.22
2022-09-17T06:13:04.525Z,99449.06
2022-09-17T06:14:07.340Z,99438.31
2022-09-17T06:15:14.664Z,99437.84
2022-09-17T06:16:17.706Z,99431.66
2022-09-17T06:17:22.261Z,99434.66
2022-09-17T06:18:25.737Z,99436.78
2022-09-17T06:19:28.894Z,99436.13
2022-09-17T06:20:31.896Z,99437.00
2022-09-17T06:21:34.876Z,99437.53
2022-09-17T06:22:37.757Z,99442.50
2022-09-17T06:23:43.457Z,99439.00
2022-09-17T06:24:46.446Z,99442.09
2022-09-17T06:25:59.841Z,99432.75
2022-09-17T06:27:02.653Z,99438.59
2022-09-17T06:28:05.900Z,99437.25
2022-09-17T06:29:09.215Z,99427.56
2022-09-17T06:30:12.593Z,99436.00
2022-09-17T06:31:15.485Z,99429.91
2022-09-17T06:32:18.359Z,99420.50
2022-09-17T06:33:22.895Z,99416.81
2022-09-17T06:34:25.761Z,99421.06
2022-09-17T06:35:29.529Z,99417.69
2022-09-17T06:36:32.610Z,99415.13
2022-09-17T06:37:40.264Z,99418.00
2022-09-17T06:38:43.791Z,99412.53
2022-09-17T06:39:46.746Z,99416.88
2022-09-17T06:40:52.929Z,99417.34
2022-09-17T06:41:55.804Z,99414.06
2022-09-17T06:42:59.787Z,99414.75
2022-09-17T06:44:04.288Z,99405.94
2022-09-17T06:45:10.266Z,99406.69
2022-09-17T06:46:16.240Z,99405.38
2022-09-17T06:47:19.491Z,99411.78
2022-09-17T06:48:23.321Z,99402.97
2022-09-17T06:49:26.441Z,99404.81
2022-09-17T06:50:29.346Z,99404.28
2022-09-17T06:51:32.422Z,99403.97
2022-09-17T06:52:35.445Z,99399.59
2022-09-17T06:53:39.533Z,99407.69
2022-09-17T06:54:43.082Z,99402.66
2022-09-17T06:55:46.168Z,99402.28
2022-09-17T06:56:49.114Z,99404.13
2022-09-17T06:57:52.210Z,99400.31
2022-09-17T06:58:55.244Z,99406.06
2022-09-17T06:59:58.308Z,99395.25
2022-09-17T07:01:02.801Z,99400.88
2022-09-17T07:02:06.213Z,99397.03
2022-09-17T07:03:10.581Z,99407.75
2022-09-17T07:04:14.036Z,99410.50
2022-09-17T07:05:17.135Z,99405.16
2022-09-17T07:06:20.087Z,99401.19
2022-09-17T07:07:22.982Z,99409.13
2022-09-17T07:08:26.281Z,99401.31
2022-09-17T07:09:29.308Z,99410.44
2022-09-17T07:10:32.715Z,99407.19
2022-09-17T07:11:35.680Z,99407.72
2022-09-17T07:12:44.449Z,99411.09
2022-09-17T07:13:49.619Z,99419.66
2022-09-17T07:14:52.849Z,99423.28
2022-09-17T07:16:02.022Z,99424.47
2022-09-17T07:17:05.192Z,99426.09
2022-09-17T07:18:12.135Z,99428.63
2022-09-17T07:19:15.185Z,99429.72
2022-09-17T07:20:18.459Z,99434.06
2022-09-17T07:21:21.460Z,99425.94
2022-09-17T07:22:25.652Z,99428.81
2022-09-17T07:23:34.543Z,99435.88
2022-09-17T07:24:37.645Z,99421.94
2022-09-17T07:25:40.642Z,99431.75
2022-09-17T07:26:43.719Z,99435.00
2022-09-17T07:27:46.688Z,99427.72
2022-09-17T07:28:52.626Z,99435.34
2022-09-17T07:29:55.953Z,99431.13
2022-09-17T07:30:59.055Z,99435.00
2022-09-17T07:32:02.347Z,99436.34
2022-09-17T07:33:05.234Z,99432.97
2022-09-17T07:34:08.057Z,99435.44
2022-09-17T07:35:10.877Z,99443.41
2022-09-17T07:36:17.910Z,99442.19
2022-09-17T07:37:21.690Z,99438.16
2022-09-17T07:38:25.946Z,99446.78
2022-09-17T07:39:29.021Z,99440.22
2022-09-17T07:40:31.940Z,99445.75
2022-09-17T07:41:35.252Z,99450.88
2022-09-17T07:42:38.014Z,99445.97
2022-09-17T07:43:42.155Z,99451.50
2022-09-17T07:44:46.703Z,99448.31
2022-09-17T07:45:49.646Z,99455.88
2022-09-17T07:46:52.517Z,99449.19
2022-09-17T07:47:55.517Z,99451.09
2022-09-17T07:48:58.643Z,99452.94
2022-09-17T07:50:01.539Z,99463.78
2022-09-17T07:51:04.630Z,99450.66
2022-09-17T07:52:07.497Z,99458.94
2022-09-17T07:53:11.644Z,99450.97
2022-09-17T07:54:14.633Z,99451.50
2022-09-17T07:55:17.729Z,99460.41
2022-09-17T07:56:21.369Z,99459.72
2022-09-17T07:57:24.358Z,99465.16
2022-09-17T07:58:36.735Z,99463.38
2022-09-17T07:59:39.829Z,99463.13
2022-09-17T08:00:43.473Z,99458.38
2022-09-17T08:01:46.537Z,99462.81
2022-09-17T08:02:56.593Z,99454.31
2022-09-17T08:04:00.455Z,99465.91
2022-09-17T08:05:03.702Z,99459.56
2022-09-17T08:06:13.648Z,99465.19
2022-09-17T08:07:16.621Z,99469.16
2022-09-17T08:08:21.375Z,99471.81
2022-09-17T08:09:24.613Z,99464.56
2022-09-17T08:10:27.897Z,99461.91
2022-09-17T08:11:54.604Z,99459.47
2022-09-17T08:12:59.255Z,99464.66
2022-09-17T08:14:02.292Z,99464.38
2022-09-17T08:15:05.888Z,99460.50
2022-09-17T08:16:15.306Z,99459.56
2022-09-17T08:17:18.278Z,99459.66
2022-09-17T08:18:21.147Z,99460.06
2022-09-17T08:19:24.621Z,99464.78
2022-09-17T08:20:27.494Z,99461.22
2022-09-17T08:21:30.620Z,99459.16
2022-09-17T08:22:33.979Z,99467.53
2022-09-17T08:23:40.085Z,99459.50
2022-09-17T08:24:42.929Z,99464.56
2022-09-17T08:25:53.739Z,99460.19
2022-09-17T08:26:56.783Z,99462.53
2022-09-17T08:27:59.778Z,99467.38
2022-09-17T08:29:02.718Z,99457.13
2022-09-17T08:30:07.889Z,99459.28
2022-09-17T08:31:16.686Z,99462.66
2022-09-17T08:32:19.553Z,99464.69
2022-09-17T08:33:22.751Z,99473.38
2022-09-17T08:34:25.662Z,99475.44
2022-09-17T08:35:28.494Z,99472.38
2022-09-17T08:36:31.660Z,99482.66
2022-09-17T08:37:35.242Z,99477.75
2022-09-17T08:38:39.217Z,99478.03
2022-09-17T08:39:42.572Z,99480.59
2022-09-17T08:41:10.429Z,99477.28
2022-09-17T08:42:51.683Z,99481.56
2022-09-17T08:44:32.636Z,99479.03
2022-09-17T08:45:36.043Z,99482.75
2022-09-17T08:47:01.383Z,99479.97
2022-09-17T08:48:05.417Z,99483.50
2022-09-17T08:49:20.725Z,99476.22
2022-09-17T08:50:32.730Z,99489.09
2022-09-17T08:51:41.792Z,99483.38
2022-09-17T08:53:23.508Z,99490.28
2022-09-17T08:55:11.739Z,99484.06
2022-09-17T08:56:18.909Z,99480.59
2022-09-17T08:57:47.095Z,99482.03
2022-09-17T08:59:11.069Z,99493.22
2022-09-17T09:00:20.615Z,99492.56
2022-09-17T09:01:32.122Z,99503.56
2022-09-17T09:03:05.303Z,99500.94
2022-09-17T09:04:35.372Z,99502.94
2022-09-17T09:05:46.045Z,99508.19
2022-09-17T09:07:24.321Z,99506.38
2022-09-17T09:08:37.139Z,99505.13
2022-09-17T09:10:14.483Z,99499.16
2022-09-17T09:11:27.462Z,99498.69
2022-09-17T09:12:36.330Z,99488.50
2022-09-17T09:13:52.612Z,99493.59
2022-09-17T09:15:19.184Z,99488.41
2022-09-17T09:16:27.210Z,99495.44
2022-09-17T09:17:41.862Z,99491.00
2022-09-17T09:18:45.004Z,99488.38
2022-09-17T09:19:50.050Z,99490.53
2022-09-17T09:21:28.070Z,99492.56
2022-09-17T09:22:52.217Z,99492.94
2022-09-17T09:24:01.344Z,99496.22
2022-09-17T09:25:24.913Z,99484.50
2022-09-17T09:26:49.273Z,99493.44
2022-09-17T09:28:08.903Z,99495.69
2022-09-17T09:29:38.864Z,99490.75
2022-09-17T09:31:22.358Z,99491.88
2022-09-17T09:32:49.975Z,99493.66
2022-09-17T09:33:53.607Z,99492.81
2022-09-17T09:34:58.112Z,99494.00
2022-09-17T09:36:01.374Z,99499.22
2022-09-17T09:37:31.777Z,99491.41
2022-09-17T09:39:11.389Z,99492.13
2022-09-17T09:40:44.785Z,99488.00
2022-09-17T09:41:59.490Z,99486.25
2022-09-17T09:44:02.754Z,99475.75
2022-09-17T09:45:27.505Z,99486.25
2022-09-17T09:47:16.948Z,99484.16
2022-09-17T09:49:09.707Z,99484.66
2022-09-17T09:51:01.751Z,99487.81
2022-09-17T09:52:39.332Z,99487.00
2022-09-17T09:54:07.376Z,99488.13
2022-09-17T09:55:35.663Z,99482.22
2022-09-17T09:57:09.020Z,99484.72
2022-09-17T09:58:17.124Z,99495.06
2022-09-17T09:59:20.914Z,99490.66
2022-09-17T10:00:34.755Z,99493.59
2022-09-17T10:01:42.838Z,99498.63
2022-09-17T10:02:47.218Z,99483.69
2022-09-17T10:03:52.692Z,99490.25
2022-09-17T10:05:07.973Z,99483.19
2022-09-17T10:06:12.354Z,99483.50
2022-09-17T10:07:15.351Z,99488.28
2022-09-17T10:08:18.308Z,99485.81
2022-09-17T10:09:22.729Z,99483.78
2022-09-17T10:10:25.914Z,99484.69
2022-09-17T10:11:34.847Z,99484.28
2022-09-17T10:12:38.514Z,99492.94
2022-09-17T10:13:43.137Z,99485.47
2022-09-17T10:14:47.272Z,99484.75
2022-09-17T10:15:50.443Z,99485.47
2022-09-17T10:17:25.185Z,99482.03
2022-09-17T10:18:28.224Z,99486.91
2022-09-17T10:19:31.167Z,99488.53
2022-09-17T10:20:33.992Z,99485.63
2022-09-17T10:21:40.374Z,99481.59
2022-09-17T10:22:47.887Z,99492.13
2022-09-17T10:23:51.421Z,99484.44
2022-09-17T10:24:57.195Z,99490.41
2022-09-17T10:26:00.279Z,99494.16
2022-09-17T10:27:14.183Z,99493.69
2022-09-17T10:28:50.849Z,99504.13
2022-09-17T10:30:17.387Z,99497.41
2022-09-17T10:31:20.516Z,99495.47
2022-09-17T10:32:23.684Z,99499.88
2022-09-17T10:33:31.708Z,99495.22
2022-09-17T10:34:35.105Z,99499.88
2022-09-17T10:35:38.419Z,99486.22
2022-09-17T10:36:46.581Z,99491.84
2022-09-17T10:37:52.433Z,99493.94
2022-09-17T10:38:55.380Z,99501.56
2022-09-17T10:39:58.495Z,99500.59
2022-09-17T10:41:22.469Z,99502.03
2022-09-17T10:42:25.419Z,99498.28
2022-09-17T10:43:28.316Z,99505.53
2022-09-17T10:44:37.019Z,99499.19
2022-09-17T10:45:43.822Z,99492.38
2022-09-17T10:46:46.877Z,99497.97
2022-09-17T10:47:51.431Z,99489.97
2022-09-17T10:49:33.083Z,99490.28
2022-09-17T10:50:37.583Z,99484.97
2022-09-17T10:51:40.672Z,99486.91
2022-09-17T10:53:06.280Z,99487.13
2022-09-17T10:55:08.003Z,99487.78
2022-09-17T10:56:37.733Z,99488.03
2022-09-17T10:57:58.908Z,99498.16
2022-09-17T10:59:35.343Z,99495.97
2022-09-17T11:00:41.030Z,99487.44
2022-09-17T11:02:08.016Z,99489.69
2022-09-17T11:03:44.534Z,99487.66
2022-09-17T11:05:33.365Z,99489.69
2022-09-17T11:07:16.842Z,99494.28
2022-09-17T11:08:38.698Z,99500.09
2022-09-17T11:10:04.732Z,99505.28
2022-09-17T11:11:27.941Z,99503.34
2022-09-17T11:13:02.141Z,99518.53
2022-09-17T11:14:50.265Z,99532.19
2022-09-17T11:16:29.647Z,99531.97
2022-09-17T11:17:56.080Z,99539.47
2022-09-17T11:19:07.340Z,99540.47
2022-09-17T11:20:30.938Z,99540.25
2022-09-17T11:21:49.233Z,99532.97
2022-09-17T11:23:49.620Z,99528.66
2022-09-17T11:25:27.973Z,99524.56
2022-09-17T11:27:06.353Z,99523.50
2022-09-17T11:28:34.298Z,99517.38
2022-09-17T11:30:19.307Z,99515.94
2022-09-17T11:32:11.164Z,99521.47
2022-09-17T11:33:42.264Z,99517.88
2022-09-17T11:34:55.678Z,99526.47
2022-09-17T11:36:18.487Z,99530.88
2022-09-17T11:37:28.994Z,99522.31
2022-09-17T11:38:40.748Z,99516.81
2022-09-17T11:40:06.227Z,99516.94
2022-09-17T11:41:31.620Z,99514.44
2022-09-17T11:42:42.168Z,99507.69
2022-09-17T11:43:53.781Z,99508.94
2022-09-17T11:45:05.338Z,99508.91
2022-09-17T11:46:19.371Z,99501.38
2022-09-17T11:47:36.812Z,99504.16
2022-09-17T11:49:02.440Z,99508.31
2022-09-17T11:50:28.722Z,99496.63
2022-09-17T11:51:43.908Z,99495.41
2022-09-17T11:53:00.907Z,99497.78
2022-09-17T11:54:07.958Z,99494.34
2022-09-17T11:55:45.606Z,99504.50
2022-09-17T11:56:54.539Z,99504.50
2022-09-17T11:58:10.121Z,99496.94
2022-09-17T11:59:42.583Z,99506.13
2022-09-17T12:00:58.256Z,99503.06
2022-09-17T12:02:09.100Z,99501.50
2022-09-17T12:03:26.289Z,99500.47
2022-09-17T12:04:47.819Z,99502.72
2022-09-17T12:05:56.450Z,99505.03
2022-09-17T12:07:23.920Z,99498.31
2022-09-17T12:09:03.654Z,99508.31
2022-09-17T12:10:29.884Z,99499.31
2022-09-17T12:12:07.690Z,99495.53
2022-09-17T12:13:40.036Z,99493.44
2022-09-17T12:15:14.649Z,99488.59
2022-09-17T12:16:29.022Z,99483.06
2022-09-17T12:18:45.161Z,99483.31
2022-09-17T12:20:06.516Z,99485.75
2022-09-17T12:21:14.926Z,99482.13
2022-09-17T12:22:40.560Z,99470.19
2022-09-17T12:24:01.901Z,99473.66
2022-09-17T12:25:06.678Z,99471.47
2022-09-17T12:26:52.576Z,99466.69
2022-09-17T12:28:05.935Z,99477.66
2022-09-17T12:29:28.465Z,99480.03
2022-09-17T12:30:50.426Z,99474.06
2022-09-17T12:32:23.574Z,99479.44
2022-09-17T12:33:46.120Z,99479.94
2022-09-17T12:35:04.047Z,99484.56
2022-09-17T12:36:19.913Z,99484.38
2022-09-17T12:37:43.375Z,99484.13
2022-09-17T12:39:37.450Z,99491.75
2022-09-17T12:41:19.965Z,99491.69
2022-09-17T12:43:11.277Z,99494.03
2022-09-17T12:44:32.666Z,99492.66
2022-09-17T12:46:00.588Z,99500.31
2022-09-17T12:47:40.465Z,99499.06
2022-09-17T12:49:19.517Z,99503.56
2022-09-17T12:50:34.529Z,99503.03
2022-09-17T12:52:21.295Z,99504.81
2022-09-17T12:53:37.155Z,99510.84
2022-09-17T12:55:14.027Z,99501.69
2022-09-17T12:57:16.817Z,99497.03
2022-09-17T12:58:42.283Z,99499.28
2022-09-17T13:00:07.916Z,99493.47
2022-09-17T13:01:36.472Z,99494.81
2022-09-17T13:02:46.775Z,99497.72
2022-09-17T13:04:16.703Z,99495.72
2022-09-17T13:05:55.188Z,99493.47
2022-09-17T13:07:49.002Z,99499.53
2022-09-17T13:09:41.617Z,99489.78
2022-09-17T13:11:30.925Z,99486.75
2022-09-17T13:12:43.037Z,99495.38
2022-09-17T13:14:23.605Z,99488.41
2022-09-17T13:16:05.007Z,99498.53
2022-09-17T13:18:20.672Z,99496.72
2022-09-17T13:19:56.075Z,99485.31
2022-09-17T13:21:03.969Z,99490.75
2022-09-17T13:22:22.973Z,99490.56
2022-09-17T13:23:40.410Z,99496.28
2022-09-17T13:24:47.147Z,99484.22
2022-09-17T13:25:53.427Z,99484.81
2022-09-17T13:26:58.779Z,99485.88
2022-09-17T13:28:19.912Z,99483.53
2022-09-17T13:29:43.922Z,99481.84
2022-09-17T13:30:58.767Z,99484.94
2022-09-17T13:32:02.041Z,99485.50
2022-09-17T13:33:05.213Z,99491.34
2022-09-17T13:34:28.517Z,99491.66
2022-09-17T13:35:34.157Z,99488.38
2022-09-17T13:36:46.201Z,99493.16
2022-09-17T13:37:58.482Z,99493.81
2022-09-17T13:39:04.890Z,99496.25
2022-09-17T13:40:33.099Z,99498.81
2022-09-17T13:41:42.478Z,99496.19
2022-09-17T13:42:49.317Z,99497.94
2022-09-17T13:43:55.203Z,99494.97
2022-09-17T13:45:18.807Z,99491.47
2022-09-17T13:46:24.677Z,99490.59
2022-09-17T13:47:37.023Z,99489.13
2022-09-17T13:48:49.392Z,99498.38
2022-09-17T13:50:04.806Z,99494.47
2022-09-17T13:51:32.681Z,99493.66
2022-09-17T13:52:49.376Z,99499.06
2022-09-17T13:53:55.002Z,99493.53
2022-09-17T13:54:58.585Z,99485.94
2022-09-17T13:56:37.055Z,99496.31
2022-09-17T13:57:51.532Z,99491.34
2022-09-17T13:58:54.688Z,99496.69
2022-09-17T14:00:00.925Z,99497.19
2022-09-17T14:01:46.552Z,99493.88
2022-09-17T14:02:49.501Z,99490.75
2022-09-17T14:03:54.369Z,99497.88
2022-09-17T14:05:29.981Z,99494.44
2022-09-17T14:06:36.100Z,99486.75
2022-09-17T14:07:49.054Z,99489.63